createdAt,value
2023-03-23T16:01:54.324Z,98163.17
2023-03-23T16:06:58.991Z,98163.86
2023-03-23T16:12:01.082Z,98168.27
2023-03-23T16:17:02.853Z,98168.89
2023-03-23T16:22:04.618Z,98169.64
2023-03-23T16:27:06.350Z,98169.59
2023-03-23T16:32:08.058Z,98175.21
2023-03-23T16:37:12.128Z,98179.55
2023-03-23T16:42:13.823Z,98184.01
2023-03-23T16:47:15.631Z,98186.11
2023-03-23T16:52:18.118Z,98181.90
2023-03-23T16:57:19.854Z,98181.32
2023-03-23T17:02:22.159Z,98183.99
2023-03-23T17:07:24.554Z,98185.45
2023-03-23T17:12:27.293Z,98193.72
2023-03-23T17:17:29.147Z,98190.02
2023-03-23T17:22:31.253Z,98194.74
2023-03-23T17:27:33.154Z,98201.25
2023-03-23T17:32:35.281Z,98199.42
2023-03-23T17:37:37.899Z,98194.98
2023-03-23T17:42:39.846Z,98186.89
2023-03-23T17:47:41.726Z,98187.36
2023-03-23T17:52:44.106Z,98198.82
2023-03-23T17:57:46.080Z,98209.94
2023-03-23T18:02:47.997Z,98200.23
2023-03-23T18:07:50.079Z,98204.41
2023-03-23T18:12:51.774Z,98214.45
2023-03-23T18:17:53.685Z,98225.35
2023-03-23T18:22:57.374Z,98236.55
2023-03-23T18:28:05.057Z,98228.11
2023-03-23T18:33:08.595Z,98229.46
2023-03-23T18:38:11.091Z,98226.38
2023-03-23T18:43:13.981Z,98219.34
2023-03-23T18:48:15.651Z,98222.62
2023-03-23T18:53:17.941Z,98231.88
2023-03-23T18:58:21.078Z,98230.70
2023-03-23T19:03:23.939Z,98231.59
2023-03-23T19:08:27.527Z,98233.93
2023-03-23T19:13:30.049Z,98232.31
2023-03-23T19:18:34.111Z,98223.89
2023-03-23T19:23:37.446Z,98219.36
2023-03-23T19:33:45.433Z,98230.77
2023-03-23T19:38:50.676Z,98237.69
2023-03-23T19:43:52.352Z,98241.40
2023-03-23T19:48:54.337Z,98241.02
2023-03-23T19:53:57.844Z,98240.44
2023-03-23T19:59:00.231Z,98239.94
2023-03-23T20:04:05.354Z,98250.34
2023-03-23T20:09:07.706Z,98264.34
2023-03-23T20:14:09.625Z,98280.20
2023-03-23T20:19:11.817Z,98292.46
2023-03-23T20:24:14.082Z,98288.62
2023-03-23T20:29:16.196Z,98292.35
2023-03-23T20:34:28.840Z,98288.64
2023-03-23T20:39:33.369Z,98291.44
2023-03-23T20:44:36.151Z,98289.59
2023-03-23T20:49:40.326Z,98288.06
2023-03-23T20:54:42.688Z,98280.35
2023-03-23T20:59:44.368Z,98271.09
2023-03-23T21:04:47.497Z,98270.14
2023-03-23T21:09:49.538Z,98278.66
2023-03-23T21:14:51.604Z,98284.77
2023-03-23T21:19:53.264Z,98295.17
2023-03-23T21:24:55.011Z,98294.01
2023-03-23T21:29:59.715Z,98293.46
2023-03-23T21:35:02.792Z,98292.33
2023-03-23T21:40:06.988Z,98286.54
2023-03-23T21:45:11.349Z,98289.70
2023-03-23T21:50:13.988Z,98271.39
2023-03-23T21:55:16.712Z,98278.31
2023-03-23T22:00:18.884Z,98291.40
2023-03-23T22:05:20.920Z,98287.73
2023-03-23T22:10:25.360Z,98287.96
2023-03-23T22:15:29.698Z,98285.11
2023-03-23T22:20:32.531Z,98287.98
2023-03-23T22:25:36.239Z,98288.89
2023-03-23T22:30:37.970Z,98283.86
2023-03-23T22:35:46.086Z,98280.17
2023-03-23T22:41:02.530Z,98279.79
2023-03-23T22:46:25.234Z,98275.55
2023-03-23T22:51:37.028Z,98277.19
2023-03-23T22:56:38.962Z,98281.86
2023-03-23T23:01:40.896Z,98285.36
2023-03-23T23:06:42.615Z,98283.52
2023-03-23T23:11:44.360Z,98286.90
2023-03-23T23:16:47.087Z,98287.46
2023-03-23T23:21:48.837Z,98288.34
2023-03-23T23:26:50.605Z,98288.77
2023-03-23T23:31:52.794Z,98289.88
2023-03-23T23:36:54.899Z,98285.77
2023-03-23T23:41:56.635Z,98283.99
2023-03-23T23:46:58.437Z,98281.90
2023-03-23T23:52:00.666Z,98277.59
2023-03-23T23:57:03.136Z,98281.06
